Lexington Weather

Lexington, Massachusetts, USA

19°F
1/26/2022 5:39am 
  • Lexington Conditions: Clear
  • Temperature: 18.7°F / -7.4°CColder 1.4°F than last hour.
  • Dew Point: 9.1°FDecreased 1.5°Fsince last hour.
  • Relative Humidity: 66
  • Wind: Calm, 10-min avg: Calm, gust: None
  • Barometer: 30.15 in Steady
  • Visibility: 10 miles
  • Snow Today: 0.8 in
  •   

Nearby Reports - Official Weather Stations - Current Conditions

Data from the National Weather Service

KBED - Bedford, MA


Distance from station: WNW 4mi, 6km

Updated Wed Jan 26, 2022 4:51am EST

Clear

Clear

Wind from WSW

Wind:

WSW 3 mph, 6 km/h

Temperature: 18°F (-8°C)

Dew Point: 5°F (-15°C)

Humidity: 58%

Barometer: 30.18 in (1022 hPa)

Clouds: Clear

Visibility: 10 miles (16 km)


2022/01/26 09:51 KBED 260951Z AUTO 25003KT 10SM CLR M08/M15 A3018 RMK AO2 SLP237 T10781150

KBOS - Boston, MA


Distance from station: ESE 12mi, 20km

Updated Wed Jan 26, 2022 4:54am EST

Few Clouds

Few Clouds

Wind from WNW

Wind:

WNW 9 mph, 15 km/h

Temperature: 21°F (-6°C)

Wind Chill: 11°F (-12°C)

Dew Point: 7°F (-14°C)

Humidity: 54%

Barometer: 30.20 in (1022.7 hPa)

Clouds: Few Clouds

Visibility: 10 miles (16 km)

Cloud details: Few Clouds 5000 ft
Few Clouds 25000 ft


2022/01/26 09:54 KBOS 260954Z 30008KT 10SM FEW050 FEW250 M06/M14 A3020 RMK AO2 SLP226 T10561144

KOWD - Norwood, MA


Distance from station: SSE 18mi, 29km

Updated Wed Jan 26, 2022 4:53am EST

Clear

Clear

Wind from NW

Wind:

NW 8 mph, 13 km/h

Temperature: 19°F (-7°C)

Wind Chill: 9°F (-13°C)

Dew Point: 7°F (-14°C)

Humidity: 58%

Barometer: 30.20 in (1022.7 hPa)

Clouds: Clear

Visibility: 10 miles (16 km)


2022/01/26 09:53 KOWD 260953Z AUTO 32007KT 10SM CLR M07/M14 A3020 RMK AO2 SLP226 T10671139

KBVY - Beverly, MA


Distance from station: ENE 19mi, 31km

Updated Wed Jan 26, 2022 4:53am EST

Clear

Clear

Wind from WNW

Wind:

WNW 5 mph, 7 km/h

Temperature: 18°F (-8°C)

Wind Chill: 11°F (-12°C)

Dew Point: 5°F (-15°C)

Humidity: 58%

Barometer: 30.18 in (1022 hPa)

Clouds: Clear

Visibility: 10 miles (16 km)


2022/01/26 09:53 KBVY 260953Z AUTO 30004KT 10SM CLR M08/M15 A3018 RMK AO2 SLP217 T10781150

KLWM - Lawrence, MA


Distance from station: NNE 20mi, 32km

Updated Wed Jan 26, 2022 4:54am EST

Clear

Clear

Wind from WNW

Wind:

WNW 3 mph, 6 km/h

Temperature: 19°F (-7°C)

Dew Point: 7°F (-14°C)

Humidity: 58%

Barometer: 30.20 in (1022.7 hPa)

Clouds: Clear

Visibility: 10 miles (16 km)


2022/01/26 09:54 KLWM 260954Z AUTO 29003KT 10SM CLR M07/M14 A3020 RMK AO2 SLP228 T10721144

KFIT - Fitchburg, MA


Distance from station: WNW 27mi, 44km

Updated Wed Jan 26, 2022 4:52am EST

Clear

Clear

Wind from calm

Wind:

Calm

Temperature: 9°F (-13°C)

Dew Point: 1°F (-17°C)

Humidity: 72%

Barometer: 30.18 in (1022 hPa)

Clouds: Clear

Visibility: 10 miles (16 km)


2022/01/26 09:52 KFIT 260952Z AUTO 00000KT 10SM CLR M13/M17 A3018 RMK AO2 SLP228 T11331167 TSNO

KASH - Nashua/Boire Fld, NH


Distance from station: NNW 28mi, 44km

Updated Wed Jan 26, 2022 4:56am EST

Clear

Clear

Wind from calm

Wind:

Calm

Temperature: 12°F (-11°C)

Dew Point: 9°F (-13°C)

Humidity: 85%

Barometer: 30.19 in (1022.4 hPa)

Clouds: Clear

Visibility: 10 miles (16 km)


2022/01/26 09:56 KASH 260956Z AUTO 00000KT 10SM CLR M11/M13 A3019 RMK AO2 SLP233 T11111133

KORH - Worcester, MA


Distance from station: WSW 34mi, 55km

Updated Wed Jan 26, 2022 4:54am EST

Clear

Clear

Wind from W

Wind:

W 6 mph, 9 km/h

Temperature: 14°F (-10°C)

Wind Chill: 5°F (-15°C)

Dew Point: 3°F (-16°C)

Humidity: 62%

Barometer: 30.12 in (1020 hPa)

Clouds: Clear

Visibility: 10 miles (16 km)


2022/01/26 09:54 KORH 260954Z AUTO 26005KT 10SM CLR M10/M16 A3012 RMK AO2 SLP217 T11001161

KMHT - Manchester, NH


Distance from station: NNW 35mi, 57km

Updated Wed Jan 26, 2022 4:53am EST

Few Clouds

Few Clouds

Wind from calm

Wind:

Calm

Temperature: 16°F (-9°C)

Dew Point: 5°F (-15°C)

Humidity: 62%

Barometer: 30.16 in (1021.3 hPa)

Clouds: Few Clouds

Visibility: 10 miles (16 km)

Cloud details: Few Clouds 6000 ft
Few Clouds 25000 ft


2022/01/26 09:53 KMHT 260953Z 00000KT 10SM FEW060 FEW250 M09/M15 A3016 RMK AO2 SLP234 T10891150

KGHG - Marshfield, MA


Distance from station: SE 38mi, 60km

Updated Wed Jan 26, 2022 5:15am EST

Clear

Clear

Wind from varies

Wind:

varies 7 mph, 11 km/h,
Gust: 15 mph, 24 km/h

Temperature: 23°F (-5°C)

Wind Chill: 15°F (-9°C)

Dew Point: 7°F (-14°C)

Humidity: 50%

Barometer: 30.18 in (1022 hPa)

Clouds: Clear

Visibility: 10 miles (16 km)


2022/01/26 10:15 KGHG 261015Z AUTO VRB06G13KT 10SM CLR M05/M14 A3018 RMK AO2

KSFZ - Pawtucket, RI


Distance from station: SSW 39mi, 62km

Updated Wed Jan 26, 2022 4:56am EST

Clear

Clear

Wind from NW

Wind:

NW 8 mph, 13 km/h

Temperature: 18°F (-8°C)

Wind Chill: 8°F (-13°C)

Dew Point: 9°F (-13°C)

Humidity: 68%

Barometer: 30.17 in (1021.7 hPa)

Clouds: Clear

Visibility: 10 miles (16 km)


2022/01/26 09:56 KSFZ 260956Z AUTO 32007KT 10SM CLR M08/M13 A3017 RMK AO2 SLP229 T10781133 FZRANO $

KTAN - Taunton, MA


Distance from station: SSE 40mi, 65km

Updated Wed Jan 26, 2022 4:52am EST

Clear

Clear

Wind from varies

Wind:

varies 3 mph, 6 km/h

Temperature: 21°F (-6°C)

Dew Point: 10°F (-12°C)

Humidity: 63%

Barometer: 30.18 in (1022 hPa)

Clouds: Clear

Visibility: 10 miles (16 km)


2022/01/26 09:52 KTAN 260952Z AUTO VRB03KT 10SM CLR M06/M12 A3018 RMK AO2 SLP219 T10561122

KPYM - Plymouth, MA


Distance from station: SE 44mi, 72km

Updated Wed Jan 26, 2022 4:52am EST

Clear

Clear

Wind from NNW

Wind:

NNW 7 mph, 11 km/h

Temperature: 21°F (-6°C)

Wind Chill: 12°F (-11°C)

Dew Point: 9°F (-13°C)

Humidity: 58%

Barometer: 30.16 in (1021.3 hPa)

Clouds: Clear

Visibility: 10 miles (16 km)


2022/01/26 09:52 KPYM 260952Z AUTO 33006KT 10SM CLR M06/M13 A3016 RMK AO2 SLP216 T10561128

KAFN - Jaffrey, NH


Distance from station: WNW 46mi, 74km

Updated Wed Jan 26, 2022 4:52am EST

Clear

Clear

Wind from calm

Wind:

Calm

Temperature: 1°F (-17°C)

Dew Point: -4°F (-20°C)

Humidity: 78%

Barometer: 30.11 in (1019.6 hPa)

Clouds: Clear

Visibility: 10 miles (16 km)


2022/01/26 09:52 KAFN 260952Z AUTO 00000KT 10SM CLR M17/M20 A3011 RMK AO2 SLP223 T11721200

KPSM - Portsmouth/Pease, NH


Distance from station: NNE 48mi, 78km

Updated Wed Jan 26, 2022 4:56am EST

Clear

Clear

Wind from WNW

Wind:

WNW 8 mph, 13 km/h

Temperature: 18°F (-8°C)

Wind Chill: 8°F (-13°C)

Dew Point: -0°F (-18°C)

Humidity: 45%

Barometer: 30.19 in (1022.4 hPa)

Clouds: Clear

Visibility: 10 miles (16 km)


2022/01/26 09:56 KPSM 260956Z 29007KT 10SM CLR M08/M18 A3019 RMK AO2A SLP227 T10821178

KPVD - Providence/Green, RI


Distance from station: S 51mi, 82km

Updated Wed Jan 26, 2022 4:51am EST

Clear

Clear

Wind from NNW

Wind:

NNW 8 mph, 13 km/h

Temperature: 21°F (-6°C)

Wind Chill: 11°F (-12°C)

Dew Point: 9°F (-13°C)

Humidity: 58%

Barometer: 30.20 in (1022.7 hPa)

Clouds: Clear

Visibility: 10 miles (16 km)


2022/01/26 09:51 KPVD 260951Z AUTO 33007KT 10SM CLR M06/M13 A3020 RMK AO2 SLP226 T10561133 $

KCON - Concord, NH


Distance from station: NNW 54mi, 87km

Updated Wed Jan 26, 2022 4:51am EST

Clear

Clear

Wind from WNW

Wind:

WNW 5 mph, 7 km/h

Temperature: 10°F (-12°C)

Wind Chill: 1°F (-17°C)

Dew Point: 1°F (-17°C)

Humidity: 67%

Barometer: 30.17 in (1021.7 hPa)

Clouds: Clear

Visibility: 10 miles (16 km)


2022/01/26 09:51 KCON 260951Z AUTO 30004KT 10SM CLR M12/M17 A3017 RMK AO2 SLP223 T11221172

KEWB - New Bedford, MA


Distance from station: SSE 54mi, 87km

Updated Wed Jan 26, 2022 4:53am EST

Clear

Clear

Wind from NW

Wind:

NW 5 mph, 7 km/h

Temperature: 21°F (-6°C)

Wind Chill: 14°F (-10°C)

Dew Point: 10°F (-12°C)

Humidity: 63%

Barometer: 30.18 in (1022 hPa)

Clouds: Clear

Visibility: 10 miles (16 km)


2022/01/26 09:53 KEWB 260953Z AUTO 31004KT 10SM CLR M06/M12 A3018 RMK AO2 SLP219 T10561122

KORE - Orange, Massachusetts, USA


Distance from station: W 54mi, 87km

Updated Wed Jan 26, 2022 4:52am EST

Clear

Clear

Wind from calm

Wind:

Calm

Temperature: 3°F (-16°C)

Dew Point: -0°F (-18°C)

Humidity: 85%

Barometer: 30.18 in (1022 hPa)

Clouds: Clear

Visibility: 10 miles (16 km)


2022/01/26 09:52 KORE 260952Z AUTO 00000KT 10SM CLR M16/M18 A3018 RMK AO2 SLP230 I1000 T11561178

KPVC - Provincetown, Massachusetts, USA


Distance from station: ESE 58mi, 94km

Updated Wed Jan 26, 2022 4:56am EST

Clear

Clear

Wind from NNW

Wind:

NNW 20 mph, 31 km/h,
Gust: 25 mph, 41 km/h

Temperature: 27°F (-3°C)

Wind Chill: 13°F (-11°C)

Dew Point: 12°F (-11°C)

Humidity: 54%

Barometer: 30.17 in (1021.7 hPa)

Clouds: Clear

Visibility: 10 miles (16 km)


2022/01/26 09:56 KPVC 260956Z AUTO 34017G22KT 10SM CLR M03/M11 A3017 RMK AO2 SLP215 T10281111 FZRANO

KCEF - Chicopee/Westover, Massachusetts, USA


Distance from station: WSW 67mi, 108km

Updated Wed Jan 26, 2022 4:56am EST

Clear

Clear

Wind from W

Wind:

W 3 mph, 6 km/h

Temperature: 16°F (-9°C)

Dew Point: 5°F (-15°C)

Humidity: 62%

Barometer: 30.20 in (1022.7 hPa)

Clouds: Clear

Visibility: 10 miles (16 km)


2022/01/26 09:56 KCEF 260956Z AUTO 28003KT 10SM CLR M09/M15 A3020 RMK AO2 SLP237 T10941150

KMWN - Mount Washington, NH


Distance from station: N 126mi, 203km

Updated Wed Jan 26, 2022 4:55am EST

Freezing fog, Low drifting snow, Mostly cloudy

Freezing fog, Low drifting snow, Mostly cloudy

Wind from WNW

Wind:

WNW 41 mph, 67 km/h,
Gust: 53 mph, 85 km/h

Temperature: -13°F (-25°C)

Wind Chill: -47°F (-44°C)

Dew Point: -13°F (-25°C)

Humidity: 100%

Summary: Freezing fog, Low drifting snow

Clouds: Mostly cloudy

Visibility: 1/16 mile (0 km)

Cloud details: Mostly cloudy 0 ft
Mostly cloudy 2000 ft
Mostly cloudy 20000 ft


2022/01/26 09:55 KMWN 260955Z 30036G46KT 1/16SM FZFG DRSN BKN000 BKN020 BKN200 M25/M25 RMK FZFG BKN000 VRY LGT ICG

KFUL - Fullerton, California, USA


Distance from station: W 2235mi, 4139km

Updated Wed Jan 26, 2022 2:21am PST

Mostly cloudy

Mostly cloudy

Wind from calm

Wind:

Calm

Temperature: 46°F (8°C)

Dew Point: 43°F (6°C)

Humidity: 87%

Barometer: 30.06 in (1017.9 hPa)

Clouds: Mostly cloudy

Visibility: 9 miles (14 km)

Cloud details: Mostly cloudy 500 ft


2022/01/26 10:21 KFUL 261021Z AUTO 00000KT 9SM BKN005 08/06 A3006 RMK AO2 T00780061